createdAt,value
2022-10-31T00:01:22.536Z,15.00
2022-10-31T00:03:50.672Z,15.02
2022-10-31T00:06:20.233Z,15.02
2022-10-31T00:08:49.272Z,15.06
2022-10-31T00:11:17.640Z,15.05
2022-10-31T00:13:45.755Z,15.08
2022-10-31T00:16:18.275Z,15.04
2022-10-31T00:18:49.675Z,15.05
2022-10-31T00:21:19.622Z,15.05
2022-10-31T00:23:47.704Z,15.05
2022-10-31T00:26:16.240Z,15.01
2022-10-31T00:28:44.720Z,15.00
2022-10-31T00:31:14.470Z,14.95
2022-10-31T00:33:55.132Z,14.93
2022-10-31T00:36:25.184Z,14.91
2022-10-31T00:38:53.655Z,14.94
2022-10-31T00:41:21.664Z,14.91
2022-10-31T00:43:49.740Z,14.90
2022-10-31T00:46:18.215Z,14.92
2022-10-31T00:48:46.376Z,14.91
2022-10-31T00:51:14.694Z,14.95
2022-10-31T00:53:44.511Z,14.93
2022-10-31T00:56:12.698Z,14.93
2022-10-31T00:58:40.759Z,14.90
2022-10-31T01:01:09.310Z,14.89
2022-10-31T01:03:39.940Z,14.87
2022-10-31T01:06:11.271Z,14.83
2022-10-31T01:08:40.860Z,14.82
2022-10-31T01:11:13.908Z,14.80
2022-10-31T01:13:42.996Z,14.76
2022-10-31T01:16:13.822Z,14.82
2022-10-31T01:18:42.330Z,14.82
2022-10-31T01:21:12.301Z,14.82
2022-10-31T01:23:41.066Z,14.75
2022-10-31T01:26:15.275Z,14.77
2022-10-31T01:28:47.937Z,14.73
2022-10-31T01:31:17.285Z,14.76
2022-10-31T01:33:45.557Z,14.74
2022-10-31T01:36:15.810Z,14.73
2022-10-31T01:38:44.250Z,14.73
2022-10-31T01:41:15.879Z,14.72
2022-10-31T01:43:45.578Z,14.73
2022-10-31T01:46:14.533Z,14.73
2022-10-31T01:48:43.704Z,14.71
2022-10-31T01:51:15.089Z,14.77
2022-10-31T01:53:45.659Z,14.79
2022-10-31T01:56:17.203Z,14.84
2022-10-31T01:58:48.002Z,14.85
2022-10-31T02:01:18.768Z,14.84
2022-10-31T02:03:49.200Z,14.79
2022-10-31T02:06:28.515Z,14.86
2022-10-31T02:08:59.401Z,14.87
2022-10-31T02:11:30.719Z,14.76
2022-10-31T02:14:00.747Z,14.83
2022-10-31T02:16:29.151Z,14.82
2022-10-31T02:18:59.043Z,14.75
2022-10-31T02:21:39.016Z,14.80
2022-10-31T02:24:45.252Z,14.83
2022-10-31T02:27:29.585Z,14.90
2022-10-31T02:30:14.165Z,14.83
2022-10-31T02:32:56.761Z,14.78
2022-10-31T02:35:43.132Z,14.75
2022-10-31T02:38:21.824Z,14.81
2022-10-31T02:40:56.269Z,14.78
2022-10-31T02:43:30.818Z,14.77
2022-10-31T02:46:05.539Z,14.80
2022-10-31T02:48:38.220Z,14.75
2022-10-31T02:51:07.419Z,14.84
2022-10-31T02:53:36.396Z,14.83
2022-10-31T02:56:09.175Z,14.78
2022-10-31T02:58:40.441Z,14.81
2022-10-31T03:01:36.239Z,14.80
2022-10-31T03:04:28.404Z,14.76
2022-10-31T03:07:03.347Z,14.77
2022-10-31T03:09:39.007Z,14.77
2022-10-31T03:12:12.399Z,14.78
2022-10-31T03:14:45.781Z,14.78
2022-10-31T03:17:19.900Z,14.67
2022-10-31T03:19:55.643Z,14.71
2022-10-31T03:22:28.031Z,14.72
2022-10-31T03:24:59.208Z,14.71
2022-10-31T03:27:32.175Z,14.73
2022-10-31T03:30:04.178Z,14.73
2022-10-31T03:32:38.471Z,14.69
2022-10-31T03:35:11.206Z,14.71
2022-10-31T03:37:42.137Z,14.73
2022-10-31T03:40:12.989Z,14.77
2022-10-31T03:42:44.275Z,14.72
2022-10-31T03:45:17.622Z,14.69
2022-10-31T03:47:46.895Z,14.71
2022-10-31T03:50:18.219Z,14.68
2022-10-31T03:52:51.978Z,14.71
2022-10-31T03:55:22.293Z,14.73
2022-10-31T03:57:56.499Z,14.82
2022-10-31T04:00:25.216Z,14.82
2022-10-31T04:03:01.424Z,14.79
2022-10-31T04:05:33.166Z,14.75
2022-10-31T04:08:04.824Z,14.73
2022-10-31T04:10:34.784Z,14.72
2022-10-31T04:13:07.875Z,14.70
2022-10-31T04:15:38.401Z,14.70
2022-10-31T04:18:07.919Z,14.67
2022-10-31T04:20:39.642Z,14.68
2022-10-31T04:23:17.868Z,14.65
2022-10-31T04:25:46.292Z,14.67
2022-10-31T04:28:14.418Z,14.67
2022-10-31T04:30:42.798Z,14.68
2022-10-31T04:33:14.208Z,14.66
2022-10-31T04:35:43.886Z,14.63
2022-10-31T04:38:12.106Z,14.66
2022-10-31T04:40:40.455Z,14.66
2022-10-31T04:43:09.875Z,14.65
2022-10-31T04:45:39.202Z,14.65
2022-10-31T04:48:07.655Z,14.67
2022-10-31T04:50:35.794Z,14.63
2022-10-31T04:53:05.424Z,14.64
2022-10-31T04:55:33.611Z,14.64
2022-10-31T04:58:01.876Z,14.67
2022-10-31T05:00:31.494Z,14.69
2022-10-31T05:03:00.883Z,14.67
2022-10-31T05:05:31.696Z,14.67
2022-10-31T05:07:59.926Z,14.69
2022-10-31T05:10:31.283Z,14.69
2022-10-31T05:13:02.091Z,14.62
2022-10-31T05:15:31.000Z,14.67
2022-10-31T05:18:00.580Z,14.71
2022-10-31T05:20:32.410Z,14.69
2022-10-31T05:23:01.198Z,14.69
2022-10-31T05:25:31.229Z,14.69
2022-10-31T05:28:00.993Z,14.70
2022-10-31T05:30:31.109Z,14.68
2022-10-31T05:32:59.983Z,14.70
2022-10-31T05:35:30.475Z,14.65
2022-10-31T05:37:59.614Z,14.64
2022-10-31T05:40:29.263Z,14.62
2022-10-31T05:43:01.104Z,14.61
2022-10-31T05:45:29.607Z,14.58
2022-10-31T05:48:00.028Z,14.57
2022-10-31T05:50:30.101Z,14.57
2022-10-31T05:52:59.717Z,14.62
2022-10-31T05:55:28.091Z,14.64
2022-10-31T05:57:57.151Z,14.61
2022-10-31T06:00:27.841Z,14.70
2022-10-31T06:03:01.089Z,14.66
2022-10-31T06:05:30.056Z,14.67
2022-10-31T06:07:58.645Z,14.65
2022-10-31T06:10:27.797Z,14.64
2022-10-31T06:12:56.328Z,14.79
2022-10-31T06:15:24.916Z,14.81
2022-10-31T06:18:06.202Z,14.78
2022-10-31T06:20:35.329Z,14.79
2022-10-31T06:23:04.244Z,14.76
2022-10-31T06:25:34.117Z,14.73
2022-10-31T06:28:02.148Z,14.83
2022-10-31T06:30:30.578Z,14.86
2022-10-31T06:33:05.978Z,14.77
2022-10-31T06:35:34.209Z,14.86
2022-10-31T06:38:02.470Z,14.86
2022-10-31T06:40:31.116Z,14.90
2022-10-31T06:43:00.302Z,14.87
2022-10-31T06:45:29.517Z,14.85
2022-10-31T06:50:48.487Z,14.86
2022-10-31T06:53:16.922Z,14.88
2022-10-31T06:55:45.356Z,14.91
2022-10-31T06:58:13.604Z,14.88
2022-10-31T07:00:42.084Z,14.88
2022-10-31T07:03:13.602Z,14.80
2022-10-31T07:05:42.588Z,14.73
2022-10-31T07:08:13.997Z,14.66
2022-10-31T07:10:43.680Z,14.66
2022-10-31T07:13:14.195Z,14.62
2022-10-31T07:15:44.823Z,14.58
2022-10-31T07:18:14.272Z,14.61
2022-10-31T07:20:42.403Z,14.57
2022-10-31T07:23:13.083Z,14.53
2022-10-31T07:25:41.969Z,14.57
2022-10-31T07:28:10.702Z,14.57
2022-10-31T07:30:39.623Z,14.56
2022-10-31T07:33:08.480Z,14.68
2022-10-31T07:35:36.676Z,14.69
2022-10-31T07:38:14.462Z,14.71
2022-10-31T07:40:43.558Z,14.70
2022-10-31T07:43:14.488Z,14.67
2022-10-31T07:45:43.394Z,14.67
2022-10-31T07:48:14.200Z,14.55
2022-10-31T07:50:42.467Z,14.63
2022-10-31T07:53:13.800Z,14.45
2022-10-31T07:55:42.298Z,14.55
2022-10-31T07:58:11.918Z,14.56
2022-10-31T08:00:42.016Z,14.49
2022-10-31T08:03:12.618Z,14.50
2022-10-31T08:05:42.078Z,14.49
2022-10-31T08:08:10.901Z,14.50
2022-10-31T08:10:41.637Z,14.37
2022-10-31T08:13:12.156Z,14.43
2022-10-31T08:15:42.603Z,14.47
2022-10-31T08:18:15.217Z,14.49
2022-10-31T08:20:44.517Z,14.54
2022-10-31T08:23:18.476Z,14.47
2022-10-31T08:25:50.403Z,14.47
2022-10-31T08:28:21.726Z,14.50
2022-10-31T08:30:52.400Z,14.56
2022-10-31T08:33:27.512Z,14.57
2022-10-31T08:36:02.923Z,14.61
2022-10-31T08:38:59.177Z,14.58
2022-10-31T08:41:44.873Z,14.74
2022-10-31T08:44:19.955Z,14.81
2022-10-31T08:46:50.887Z,14.88
2022-10-31T08:49:32.596Z,14.83
2022-10-31T08:52:05.501Z,14.90
2022-10-31T08:54:35.120Z,15.01
2022-10-31T08:57:20.556Z,15.01
2022-10-31T08:59:58.712Z,15.03
2022-10-31T09:02:32.819Z,14.84
2022-10-31T09:05:08.081Z,14.92
2022-10-31T09:07:36.862Z,14.94
2022-10-31T09:10:25.652Z,14.91
2022-10-31T09:13:08.094Z,14.86
2022-10-31T09:15:44.035Z,14.83
2022-10-31T09:18:18.463Z,14.96
2022-10-31T09:20:53.595Z,14.92
2022-10-31T09:23:28.534Z,14.92
2022-10-31T09:25:57.808Z,14.95
2022-10-31T09:28:27.333Z,14.92
2022-10-31T09:30:56.566Z,14.86
2022-10-31T09:33:25.424Z,14.89
2022-10-31T09:35:53.562Z,14.89
2022-10-31T09:38:24.449Z,14.81
2022-10-31T09:41:04.638Z,14.90
2022-10-31T09:43:42.139Z,14.86
2022-10-31T09:46:16.651Z,15.20
2022-10-31T09:49:05.843Z,15.26
2022-10-31T09:51:36.928Z,15.00
2022-10-31T09:54:14.411Z,14.95
2022-10-31T09:56:53.363Z,14.84
2022-10-31T09:59:34.351Z,14.85
2022-10-31T10:02:20.337Z,14.85
2022-10-31T10:05:00.754Z,14.94
2022-10-31T10:07:51.007Z,14.95
2022-10-31T10:10:35.949Z,14.99
2022-10-31T10:13:44.365Z,15.04
2022-10-31T10:16:45.734Z,14.97
2022-10-31T10:19:41.856Z,14.99
2022-10-31T10:22:26.051Z,15.01
2022-10-31T10:25:21.914Z,15.17
2022-10-31T10:27:59.132Z,15.21
2022-10-31T10:30:35.801Z,15.28
2022-10-31T10:33:11.955Z,15.26
2022-10-31T10:35:45.063Z,15.30
2022-10-31T10:38:21.067Z,15.26
2022-10-31T10:40:50.382Z,15.34
2022-10-31T10:43:24.155Z,15.42
2022-10-31T10:46:21.507Z,15.42
2022-10-31T10:48:58.007Z,15.40
2022-10-31T10:54:57.429Z,15.55
2022-10-31T10:57:39.543Z,15.62
2022-10-31T11:00:22.770Z,15.48
2022-10-31T11:02:51.402Z,15.50
2022-10-31T11:05:36.839Z,15.49
2022-10-31T11:08:05.760Z,15.63
2022-10-31T11:10:34.455Z,15.61
2022-10-31T11:13:18.775Z,15.53
2022-10-31T11:15:56.880Z,15.53
2022-10-31T11:18:28.229Z,15.59
2022-10-31T11:21:00.109Z,15.58
2022-10-31T11:23:30.062Z,15.71
2022-10-31T11:26:00.886Z,15.76
2022-10-31T11:28:32.221Z,15.78
2022-10-31T11:31:05.797Z,15.83
2022-10-31T11:33:40.266Z,15.69
2022-10-31T11:36:18.464Z,15.54
2022-10-31T11:38:47.197Z,15.76
2022-10-31T11:41:18.313Z,15.80
2022-10-31T11:43:52.343Z,15.81
2022-10-31T11:46:24.182Z,15.84
2022-10-31T11:48:56.649Z,15.83
2022-10-31T11:51:29.746Z,15.88
2022-10-31T11:54:03.637Z,15.85
2022-10-31T11:56:41.121Z,15.75
2022-10-31T11:59:27.100Z,15.73
2022-10-31T12:01:58.712Z,15.80
2022-10-31T12:04:37.426Z,15.75
2022-10-31T12:07:07.208Z,15.83
2022-10-31T12:09:37.933Z,15.64
2022-10-31T12:12:38.688Z,15.52
2022-10-31T12:15:30.278Z,15.62
2022-10-31T12:18:20.186Z,15.81
2022-10-31T12:21:01.089Z,15.76
2022-10-31T12:23:40.987Z,15.93
2022-10-31T12:26:18.937Z,15.92
2022-10-31T12:29:19.519Z,15.91
2022-10-31T12:32:02.068Z,15.87
2022-10-31T12:34:56.798Z,15.80
2022-10-31T12:37:40.469Z,15.72
2022-10-31T12:40:29.027Z,15.74
2022-10-31T12:43:11.940Z,15.62
2022-10-31T12:45:54.316Z,15.60
2022-10-31T12:48:42.108Z,15.65
2022-10-31T12:51:18.227Z,15.78
2022-10-31T12:54:02.048Z,15.81
2022-10-31T12:56:48.830Z,15.69
2022-10-31T12:59:23.157Z,15.61
2022-10-31T13:01:57.544Z,15.55
2022-10-31T13:04:37.591Z,15.45
2022-10-31T13:07:12.924Z,15.42
2022-10-31T13:09:47.350Z,15.52
2022-10-31T13:12:21.355Z,15.51
2022-10-31T13:14:52.842Z,15.50
2022-10-31T13:17:28.088Z,15.43
2022-10-31T13:20:17.392Z,15.42
2022-10-31T13:22:51.004Z,15.41
2022-10-31T13:25:24.013Z,15.38
2022-10-31T13:27:58.796Z,15.37
2022-10-31T13:30:29.579Z,15.33
2022-10-31T13:33:04.509Z,15.44
2022-10-31T13:35:40.576Z,15.45
2022-10-31T13:38:19.212Z,15.36
2022-10-31T13:40:55.417Z,15.35
2022-10-31T13:43:34.443Z,15.30
2022-10-31T13:46:02.625Z,15.37
2022-10-31T13:48:43.961Z,15.34
2022-10-31T13:51:13.302Z,15.35
2022-10-31T13:53:46.271Z,15.33
2022-10-31T13:56:21.406Z,15.32
2022-10-31T13:59:16.149Z,15.20
2022-10-31T14:01:50.875Z,15.09
2022-10-31T14:04:25.605Z,15.07
2022-10-31T14:07:01.359Z,15.10
2022-10-31T14:09:35.518Z,15.11
2022-10-31T14:12:08.663Z,15.13
2022-10-31T14:14:50.277Z,15.09
2022-10-31T14:17:22.886Z,15.02
2022-10-31T14:20:27.068Z,14.83
2022-10-31T14:22:55.430Z,15.01
2022-10-31T14:25:32.815Z,14.93
2022-10-31T14:28:02.508Z,14.88
2022-10-31T14:30:33.082Z,14.77
2022-10-31T14:33:07.411Z,14.65
2022-10-31T14:35:51.602Z,14.62
2022-10-31T14:38:33.506Z,14.49
2022-10-31T14:41:22.773Z,14.24
2022-10-31T14:44:38.827Z,14.14
2022-10-31T14:47:18.805Z,14.31
2022-10-31T14:50:06.488Z,14.15
2022-10-31T14:52:37.736Z,14.13
2022-10-31T14:55:10.307Z,14.06
2022-10-31T14:57:41.564Z,14.06
2022-10-31T15:00:23.191Z,13.96
2022-10-31T15:03:05.625Z,14.02
2022-10-31T15:05:36.553Z,13.98
2022-10-31T15:08:05.146Z,13.97
2022-10-31T15:10:39.341Z,13.93
2022-10-31T15:13:20.609Z,14.02
2022-10-31T15:15:52.294Z,13.93
2022-10-31T15:18:25.629Z,13.76
2022-10-31T15:20:56.472Z,13.82
2022-10-31T15:23:28.686Z,13.92
2022-10-31T15:26:02.079Z,13.92
2022-10-31T15:28:32.363Z,13.98
2022-10-31T15:31:02.883Z,14.05
2022-10-31T15:33:38.808Z,14.00
2022-10-31T15:36:23.892Z,13.98
2022-10-31T15:38:58.387Z,13.93
2022-10-31T15:41:32.397Z,13.84
2022-10-31T15:44:10.581Z,13.68
2022-10-31T15:46:39.043Z,13.75
2022-10-31T15:49:24.660Z,13.73
2022-10-31T15:51:54.587Z,13.77
2022-10-31T15:54:24.512Z,13.84
2022-10-31T15:56:53.342Z,13.84
2022-10-31T15:59:24.744Z,13.87
2022-10-31T16:02:04.748Z,13.83
2022-10-31T16:04:34.723Z,13.88
2022-10-31T16:07:05.605Z,13.94
2022-10-31T16:09:33.772Z,13.95
2022-10-31T16:12:02.022Z,13.94
2022-10-31T16:14:34.244Z,13.89
2022-10-31T16:17:04.800Z,13.84
2022-10-31T16:19:37.328Z,13.80
2022-10-31T16:22:10.184Z,13.77
2022-10-31T16:24:48.782Z,13.71
2022-10-31T16:27:24.528Z,13.76
2022-10-31T16:29:53.136Z,13.88
2022-10-31T16:32:30.029Z,13.81
2022-10-31T16:35:24.350Z,13.81
2022-10-31T16:37:52.917Z,13.75
2022-10-31T16:40:21.850Z,13.76
2022-10-31T16:42:51.685Z,13.70
2022-10-31T16:45:22.210Z,13.66
2022-10-31T16:47:52.160Z,13.66
2022-10-31T16:50:25.540Z,13.70
2022-10-31T16:53:12.963Z,13.78
2022-10-31T16:55:46.950Z,13.75
2022-10-31T16:58:25.531Z,13.69
2022-10-31T17:00:54.921Z,13.72
2022-10-31T17:03:23.569Z,13.74
2022-10-31T17:05:53.378Z,13.76
2022-10-31T17:08:21.654Z,13.69
2022-10-31T17:10:53.562Z,13.72
2022-10-31T17:13:25.496Z,13.78
2022-10-31T17:15:56.216Z,13.77
2022-10-31T17:18:27.549Z,13.74
2022-10-31T17:21:00.286Z,13.74
2022-10-31T17:23:29.521Z,13.64
2022-10-31T17:25:58.045Z,13.57
2022-10-31T17:28:30.568Z,13.58
2022-10-31T17:30:59.491Z,13.60
2022-10-31T17:33:28.128Z,13.67
2022-10-31T17:35:59.028Z,13.71
2022-10-31T17:38:28.463Z,13.72
2022-10-31T17:40:56.656Z,13.61
2022-10-31T17:43:27.351Z,13.57
2022-10-31T17:45:55.514Z,13.52
2022-10-31T17:48:25.060Z,13.43
2022-10-31T17:50:53.683Z,13.47
2022-10-31T17:53:23.921Z,13.38
2022-10-31T17:55:52.410Z,13.39
2022-10-31T17:58:20.875Z,13.39
2022-10-31T18:00:51.327Z,13.35
2022-10-31T18:03:20.912Z,13.34
2022-10-31T18:05:54.965Z,13.34
2022-10-31T18:08:29.517Z,13.22
2022-10-31T18:13:33.170Z,13.29
2022-10-31T18:16:01.806Z,13.28
2022-10-31T18:18:30.104Z,13.29
2022-10-31T18:20:59.273Z,13.31
2022-10-31T18:23:28.779Z,13.33
2022-10-31T18:25:56.970Z,13.30
2022-10-31T18:28:25.285Z,13.23
2022-10-31T18:30:53.269Z,13.23
2022-10-31T18:33:21.503Z,13.20
2022-10-31T18:35:49.806Z,13.17
2022-10-31T18:38:18.070Z,13.16
2022-10-31T18:43:36.687Z,13.12
2022-10-31T18:46:05.852Z,13.25
2022-10-31T18:48:34.325Z,13.21
2022-10-31T18:53:33.282Z,13.16
2022-10-31T18:56:02.153Z,13.17
2022-10-31T18:58:30.720Z,13.23
2022-10-31T19:01:00.645Z,13.27
2022-10-31T19:03:28.913Z,13.34
2022-10-31T19:05:57.914Z,13.29
2022-10-31T19:08:26.005Z,13.37
2022-10-31T19:10:54.144Z,13.33
2022-10-31T19:13:22.731Z,13.38
2022-10-31T19:15:50.716Z,13.36
2022-10-31T19:18:20.070Z,13.44
2022-10-31T19:20:48.569Z,13.43
2022-10-31T19:23:17.556Z,13.35
2022-10-31T19:25:45.488Z,13.29
2022-10-31T19:28:13.811Z,13.23
2022-10-31T19:30:41.938Z,13.21
2022-10-31T19:33:09.901Z,13.21
2022-10-31T19:35:39.872Z,13.24
2022-10-31T19:38:07.954Z,13.27
2022-10-31T19:40:37.756Z,13.23
2022-10-31T19:43:05.992Z,13.27
2022-10-31T19:45:34.117Z,13.29
2022-10-31T19:48:02.445Z,13.30
2022-10-31T19:50:31.290Z,13.30
2022-10-31T19:53:01.923Z,13.28
2022-10-31T19:55:29.971Z,13.31
2022-10-31T19:58:02.371Z,13.42
2022-10-31T20:00:30.565Z,13.43
2022-10-31T20:02:58.875Z,13.42
2022-10-31T20:05:27.571Z,13.46
2022-10-31T20:07:57.319Z,13.38
2022-10-31T20:10:27.010Z,13.41
2022-10-31T20:12:56.806Z,13.39
2022-10-31T20:15:24.793Z,13.36
2022-10-31T20:17:52.999Z,13.31
2022-10-31T20:20:21.718Z,13.28
2022-10-31T20:22:50.689Z,13.26
2022-10-31T20:25:19.124Z,13.26
2022-10-31T20:27:48.716Z,13.31
2022-10-31T20:30:17.175Z,13.37
2022-10-31T20:32:49.781Z,13.40
2022-10-31T20:35:19.272Z,13.37
2022-10-31T20:37:47.247Z,13.43
2022-10-31T20:40:15.302Z,13.35
2022-10-31T20:42:43.543Z,13.34
2022-10-31T20:45:13.071Z,13.30
2022-10-31T20:47:41.364Z,13.34
2022-10-31T20:50:10.230Z,13.36
2022-10-31T20:52:38.391Z,13.42
2022-10-31T20:55:07.248Z,13.42
2022-10-31T20:57:36.091Z,13.26
2022-10-31T21:00:06.026Z,13.29
2022-10-31T21:02:35.589Z,13.21
2022-10-31T21:05:08.487Z,13.13
2022-10-31T21:07:36.816Z,13.06
2022-10-31T21:10:15.033Z,13.02
2022-10-31T21:12:44.286Z,12.94
2022-10-31T21:15:13.897Z,12.89
2022-10-31T21:17:44.145Z,12.87
2022-10-31T21:20:12.324Z,12.86
2022-10-31T21:22:40.535Z,12.90
2022-10-31T21:25:09.098Z,12.84
2022-10-31T21:27:36.997Z,12.78
2022-10-31T21:30:06.037Z,12.74
2022-10-31T21:32:34.212Z,12.69
2022-10-31T21:35:03.765Z,12.67
2022-10-31T21:37:31.902Z,12.67
2022-10-31T21:40:00.106Z,12.68
2022-10-31T21:42:28.123Z,12.67
2022-10-31T21:44:56.238Z,12.65
2022-10-31T21:47:24.497Z,12.65
2022-10-31T21:49:52.652Z,12.67
2022-10-31T21:52:22.197Z,12.70
2022-10-31T21:54:49.423Z,12.65
2022-10-31T21:57:17.543Z,12.59
2022-10-31T21:59:48.537Z,12.85
2022-10-31T22:02:17.024Z,12.82
2022-10-31T22:04:45.746Z,12.74
2022-10-31T22:07:13.806Z,12.69
2022-10-31T22:09:47.442Z,12.55
2022-10-31T22:12:15.720Z,12.54
2022-10-31T22:14:43.979Z,12.62
2022-10-31T22:17:12.177Z,12.74
2022-10-31T22:19:40.395Z,12.63
2022-10-31T22:22:08.540Z,12.72
2022-10-31T22:24:36.653Z,12.63
2022-10-31T22:27:06.264Z,12.59
2022-10-31T22:29:35.570Z,12.64
2022-10-31T22:32:03.955Z,12.68
2022-10-31T22:34:32.101Z,12.74
2022-10-31T22:37:02.074Z,12.77
2022-10-31T22:39:30.201Z,12.70
2022-10-31T22:41:58.413Z,12.62
2022-10-31T22:44:27.720Z,12.53
2022-10-31T22:46:55.859Z,12.56
2022-10-31T22:49:24.187Z,12.53
2022-10-31T22:51:52.968Z,12.55
2022-10-31T22:54:21.207Z,12.55
2022-10-31T22:56:49.270Z,12.50
2022-10-31T22:59:17.995Z,12.45
2022-10-31T23:01:47.702Z,12.38
2022-10-31T23:04:17.450Z,12.40
2022-10-31T23:06:45.931Z,12.40
2022-10-31T23:09:16.718Z,12.44
2022-10-31T23:11:45.501Z,12.50
2022-10-31T23:14:16.450Z,12.47
2022-10-31T23:16:48.011Z,12.43
2022-10-31T23:19:17.673Z,12.41
2022-10-31T23:21:57.531Z,12.50
2022-10-31T23:24:28.372Z,12.40
2022-10-31T23:27:06.618Z,12.42
2022-10-31T23:29:35.659Z,12.41
2022-10-31T23:32:05.983Z,12.42
2022-10-31T23:34:34.279Z,12.44
2022-10-31T23:37:02.390Z,12.38
2022-10-31T23:39:30.335Z,12.23
2022-10-31T23:41:58.500Z,12.19
2022-10-31T23:44:26.717Z,12.15
2022-10-31T23:46:54.710Z,12.11
2022-10-31T23:49:24.178Z,12.18
2022-10-31T23:51:52.474Z,12.22
2022-10-31T23:54:20.533Z,12.19
2022-10-31T23:56:48.714Z,12.13
2022-10-31T23:59:16.848Z,12.08
